Time;durP1;ratioP1;P1;durP2;ratioP2;P2;SDS_P1;SDS_P2;PMS_P1;PMS_P2;Temp;Humidity;BMP_temperature;BMP_pressure;BME280_temperature;BME280_humidity;BME280_pressure;Samples;Min_cycle;Max_cycle;Signal;HPM_P1;HPM_P2
2022/11/19 03:26:12;;;;;;;3.60;2.27;;;;;;;;;;6214466;22;1346914;-92
2022/11/19 03:29:19;;;;;;;4.47;2.50;;;;;;;;;;6273660;22;20527;-94
2022/11/19 03:32:27;;;;;;;2.27;1.50;;;;;;;;;;6274563;22;20154;-92
2022/11/19 03:35:34;;;;;;;4.63;1.87;;;;;;;;;;6273689;22;20174;-94
2022/11/19 03:38:41;;;;;;;3.50;2.27;;;;;;;;;;6271887;22;20170;-90
2022/11/19 03:41:50;;;;;;;4.10;2.03;;;;;;;;;;6273395;22;20260;-93
2022/11/19 03:44:57;;;;;;;3.30;2.00;;;;;;;;;;6272310;22;20165;-92
2022/11/19 03:48:03;;;;;;;4.63;1.80;;;;;;;;;;6271523;22;20243;-93
2022/11/19 03:51:11;;;;;;;8.83;2.10;;;;;;;;;;6272245;22;20153;-92
2022/11/19 03:54:16;;;;;;;2.80;1.57;;;;;;;;;;6272554;22;20173;-93
2022/11/19 03:57:25;;;;;;;2.87;1.73;;;;;;;;;;6273483;22;20277;-92
2022/11/19 04:00:30;;;;;;;3.13;1.90;;;;;;;;;;6273952;22;20177;-93
2022/11/19 04:03:35;;;;;;;3.50;2.27;;;;;;;;;;6273014;22;20166;-91
2022/11/19 04:06:40;;;;;;;4.57;2.57;;;;;;;;;;6273240;22;20260;-92
2022/11/19 04:09:46;;;;;;;3.60;2.20;;;;;;;;;;6271909;22;20204;-91
2022/11/19 04:12:53;;;;;;;2.67;1.93;;;;;;;;;;6273665;22;20173;-91
2022/11/19 04:15:58;;;;;;;2.80;1.97;;;;;;;;;;6275027;22;20212;-91
2022/11/19 04:19:04;;;;;;;4.20;1.87;;;;;;;;;;6274588;22;20180;-93
2022/11/19 04:22:09;;;;;;;3.60;2.10;;;;;;;;;;6274262;22;20161;-93
2022/11/19 04:25:15;;;;;;;3.53;2.10;;;;;;;;;;6273886;22;20190;-92
2022/11/19 04:28:21;;;;;;;3.63;2.10;;;;;;;;;;6274091;22;20205;-93
2022/11/19 04:31:27;;;;;;;4.53;2.40;;;;;;;;;;6275245;22;20163;-92
2022/11/19 04:34:32;;;;;;;5.93;2.00;;;;;;;;;;6274790;22;20220;-91
2022/11/19 04:37:37;;;;;;;4.77;2.23;;;;;;;;;;6275177;22;20625;-94
2022/11/19 04:40:43;;;;;;;5.17;2.40;;;;;;;;;;6275755;22;20238;-92
2022/11/19 04:43:49;;;;;;;6.43;3.33;;;;;;;;;;6274116;22;20178;-90
2022/11/19 04:46:55;;;;;;;4.33;2.40;;;;;;;;;;6274856;22;20213;-93
2022/11/19 04:50:00;;;;;;;4.80;2.30;;;;;;;;;;6273720;22;20169;-92
2022/11/19 04:53:05;;;;;;;5.20;2.63;;;;;;;;;;6274958;22;20165;-94
2022/11/19 04:56:11;;;;;;;3.83;2.23;;;;;;;;;;6274616;22;20660;-93
2022/11/19 04:59:17;;;;;;;3.90;2.00;;;;;;;;;;6273927;22;20166;-92
2022/11/19 05:06:14;;;;;;;6.20;2.50;;;;;;;;;;6275058;22;20630;-93
2022/11/19 05:09:20;;;;;;;3.17;2.20;;;;;;;;;;6273950;22;20161;-93
2022/11/19 05:12:25;;;;;;;4.20;2.20;;;;;;;;;;6274789;22;20214;-91
2022/11/19 05:15:32;;;;;;;4.83;2.67;;;;;;;;;;6276534;22;20162;-92
2022/11/19 05:18:37;;;;;;;4.63;2.00;;;;;;;;;;6276476;22;20499;-93
2022/11/19 05:21:42;;;;;;;3.80;1.80;;;;;;;;;;6275646;22;20715;-93
2022/11/19 05:24:47;;;;;;;2.60;1.60;;;;;;;;;;6275735;22;20173;-93
2022/11/19 05:27:52;;;;;;;2.60;1.63;;;;;;;;;;6273262;22;20287;-93
2022/11/19 05:30:59;;;;;;;4.23;1.50;;;;;;;;;;6273564;22;20150;-92
2022/11/19 05:34:07;;;;;;;1.17;0.93;;;;;;;;;;6274073;22;20165;-92
2022/11/19 05:37:12;;;;;;;2.47;1.40;;;;;;;;;;6275214;22;20242;-90
2022/11/19 05:40:18;;;;;;;3.87;1.70;;;;;;;;;;6274512;22;20220;-92
2022/11/19 05:43:23;;;;;;;5.37;1.80;;;;;;;;;;6274307;22;20169;-93
2022/11/19 05:46:30;;;;;;;3.97;1.70;;;;;;;;;;6275307;22;20181;-93
2022/11/19 05:49:35;;;;;;;3.10;1.70;;;;;;;;;;6274144;22;20169;-94
2022/11/19 05:52:40;;;;;;;5.07;1.60;;;;;;;;;;6274248;22;20161;-92
2022/11/19 05:55:46;;;;;;;3.00;1.57;;;;;;;;;;6273867;22;20688;-92
2022/11/19 05:58:51;;;;;;;3.37;1.60;;;;;;;;;;6274754;22;20173;-91
2022/11/19 06:01:58;;;;;;;3.90;1.60;;;;;;;;;;6275572;22;20184;-92
2022/11/19 06:05:04;;;;;;;3.47;1.70;;;;;;;;;;6274812;22;20170;-91
2022/11/19 06:08:09;;;;;;;3.17;1.97;;;;;;;;;;6276159;22;20193;-91
2022/11/19 06:14:32;;;;;;;3.83;1.80;;;;;;;;;;6275588;22;20166;-93
2022/11/19 06:17:39;;;;;;;3.60;2.07;;;;;;;;;;6274345;22;20701;-92
2022/11/19 06:20:44;;;;;;;6.10;2.27;;;;;;;;;;6276533;22;20219;-92
2022/11/19 06:23:49;;;;;;;3.20;2.00;;;;;;;;;;6276113;22;20189;-93
2022/11/19 06:26:55;;;;;;;6.17;1.90;;;;;;;;;;6287879;22;20191;-92
2022/11/19 06:30:02;;;;;;;4.57;1.90;;;;;;;;;;6317047;22;20189;-92
2022/11/19 06:33:10;;;;;;;2.87;1.73;;;;;;;;;;6265142;22;20181;-91
2022/11/19 06:36:15;;;;;;;3.57;1.80;;;;;;;;;;6209876;23;20264;-92
2022/11/19 06:39:23;;;;;;;2.67;1.70;;;;;;;;;;5910904;23;20193;-91
2022/11/19 06:42:38;;;;;;;4.27;2.07;;;;;;;;;;5876566;24;20530;-91
2022/11/19 06:45:47;;;;;;;87.37;43.00;;;;;;;;;;5933352;23;20239;-92
2022/11/19 06:48:54;;;;;;;4.93;2.47;;;;;;;;;;5933462;24;20278;-92
2022/11/19 06:51:59;;;;;;;3.23;1.87;;;;;;;;;;5918407;24;20175;-91
2022/11/19 06:58:31;;;;;;;6.83;2.50;;;;;;;;;;5918992;24;20183;-91
2022/11/19 07:01:37;;;;;;;4.40;2.07;;;;;;;;;;5933899;24;20174;-90
2022/11/19 07:04:43;;;;;;;4.80;2.27;;;;;;;;;;5933006;24;20238;-91
2022/11/19 07:07:49;;;;;;;5.43;2.40;;;;;;;;;;5917949;24;20317;-90
2022/11/19 07:10:55;;;;;;;7.03;2.60;;;;;;;;;;5934859;23;20232;-92
2022/11/19 07:14:02;;;;;;;3.90;2.10;;;;;;;;;;5935855;23;20174;-92
2022/11/19 07:17:07;;;;;;;5.97;2.23;;;;;;;;;;5934681;23;20183;-89
2022/11/19 07:20:15;;;;;;;5.47;2.80;;;;;;;;;;5933605;24;20174;-92
2022/11/19 07:23:21;;;;;;;5.37;2.97;;;;;;;;;;5934297;23;20173;-92
2022/11/19 07:26:27;;;;;;;8.73;2.73;;;;;;;;;;5918287;24;20223;-93
2022/11/19 07:29:32;;;;;;;5.20;3.00;;;;;;;;;;5934697;23;20243;-94
2022/11/19 07:32:37;;;;;;;7.17;2.87;;;;;;;;;;5918660;24;20216;-91
2022/11/19 07:35:48;;;;;;;9.20;3.50;;;;;;;;;;5919793;24;20255;-88
2022/11/19 07:38:53;;;;;;;6.10;2.73;;;;;;;;;;5954869;24;20208;-90
2022/11/19 07:45:25;;;;;;;7.77;3.13;;;;;;;;;;5904831;24;20204;-91
2022/11/19 07:48:31;;;;;;;6.67;2.73;;;;;;;;;;5906505;24;20365;-93
2022/11/19 07:51:48;;;;;;;5.97;3.00;;;;;;;;;;5908445;24;20218;-93
2022/11/19 07:55:04;;;;;;;6.23;3.07;;;;;;;;;;5907883;24;20251;-92
2022/11/19 07:58:10;;;;;;;7.30;3.40;;;;;;;;;;5909002;24;20253;-92
2022/11/19 08:01:17;;;;;;;8.03;3.00;;;;;;;;;;5907850;24;20270;-91
2022/11/19 08:04:22;;;;;;;7.07;3.50;;;;;;;;;;5908581;24;20226;-90
2022/11/19 08:07:31;;;;;;;7.77;3.57;;;;;;;;;;5906871;24;20182;-90
2022/11/19 08:13:56;;;;;;;8.37;3.87;;;;;;;;;;5894285;24;20174;-93
2022/11/19 08:20:25;;;;;;;7.07;2.83;;;;;;;;;;5906961;24;20162;-92
2022/11/19 08:23:35;;;;;;;6.83;3.13;;;;;;;;;;5909247;24;20198;-93
2022/11/19 08:26:42;;;;;;;6.87;3.30;;;;;;;;;;5910710;24;20163;-91
2022/11/19 08:29:48;;;;;;;8.20;3.40;;;;;;;;;;5909682;24;20229;-91
2022/11/19 08:32:54;;;;;;;8.50;3.63;;;;;;;;;;5908370;24;20183;-90
2022/11/19 08:36:02;;;;;;;7.90;3.00;;;;;;;;;;5909823;24;20212;-89
2022/11/19 08:39:12;;;;;;;8.30;3.27;;;;;;;;;;5962037;23;20224;-92
2022/11/19 08:49:16;;;;;;;75.50;20.90;;;;;;;;;;6164373;23;20214;-89
2022/11/19 08:52:22;;;;;;;7.97;4.07;;;;;;;;;;6164374;23;20231;-91
2022/11/19 08:55:29;;;;;;;7.07;3.40;;;;;;;;;;6164194;23;20170;-93
2022/11/19 08:58:35;;;;;;;19.27;7.13;;;;;;;;;;6163003;23;20174;-90
2022/11/19 09:01:41;;;;;;;8.80;3.93;;;;;;;;;;6164856;23;20181;-91
2022/11/19 09:04:47;;;;;;;6.73;3.20;;;;;;;;;;6147201;23;20169;-92
2022/11/19 09:07:52;;;;;;;9.20;3.80;;;;;;;;;;6147592;23;20247;-90
2022/11/19 09:11:02;;;;;;;9.20;3.53;;;;;;;;;;6165125;23;20196;-89
2022/11/19 09:14:08;;;;;;;7.13;3.93;;;;;;;;;;6165376;23;20169;-92
2022/11/19 09:17:13;;;;;;;7.53;3.73;;;;;;;;;;6161046;23;20172;-91
2022/11/19 09:20:21;;;;;;;8.57;3.93;;;;;;;;;;6163311;23;20181;-92
2022/11/19 09:23:27;;;;;;;10.63;4.73;;;;;;;;;;6163385;23;20222;-92
2022/11/19 09:26:34;;;;;;;10.30;5.70;;;;;;;;;;6162804;23;20172;-92
2022/11/19 09:29:40;;;;;;;7.47;4.30;;;;;;;;;;6161654;23;20229;-90
2022/11/19 09:32:46;;;;;;;11.47;4.60;;;;;;;;;;6162077;23;20182;-92
2022/11/19 09:35:52;;;;;;;12.47;5.17;;;;;;;;;;6163262;23;20205;-93
2022/11/19 09:39:01;;;;;;;10.33;5.23;;;;;;;;;;6171222;23;20196;-92
2022/11/19 09:42:28;;;;;;;8.07;4.33;;;;;;;;;;6179034;23;20188;-92
2022/11/19 09:45:44;;;;;;;9.40;4.27;;;;;;;;;;6193891;23;20212;-93
2022/11/19 09:52:13;;;;;;;10.37;4.70;;;;;;;;;;6175355;23;20200;-92
2022/11/19 09:55:20;;;;;;;13.40;5.07;;;;;;;;;;6174670;23;20161;-90
2022/11/19 09:58:28;;;;;;;12.53;5.53;;;;;;;;;;6175434;23;20550;-93
2022/11/19 10:01:36;;;;;;;11.80;5.00;;;;;;;;;;6174953;23;20201;-90
2022/11/19 10:04:42;;;;;;;10.97;4.90;;;;;;;;;;6174567;23;20664;-91
2022/11/19 10:07:56;;;;;;;16.57;7.00;;;;;;;;;;6174493;23;20200;-91
2022/11/19 10:11:08;;;;;;;9.17;4.93;;;;;;;;;;6173691;23;20196;-92
2022/11/19 10:14:17;;;;;;;9.97;5.43;;;;;;;;;;6174594;23;20180;-91
2022/11/19 10:17:29;;;;;;;9.60;5.00;;;;;;;;;;6174683;23;20193;-92
2022/11/19 10:20:47;;;;;;;9.63;4.83;;;;;;;;;;6174700;23;20221;-92
2022/11/19 10:23:54;;;;;;;11.03;5.40;;;;;;;;;;6175071;23;20189;-89
2022/11/19 10:27:03;;;;;;;12.00;5.33;;;;;;;;;;6174729;23;20173;-91
2022/11/19 10:30:15;;;;;;;9.67;4.93;;;;;;;;;;6173164;23;20196;-91
2022/11/19 10:33:26;;;;;;;9.43;4.43;;;;;;;;;;6174958;23;20217;-92
2022/11/19 10:36:34;;;;;;;11.90;5.80;;;;;;;;;;6192019;23;20172;-92
2022/11/19 10:39:40;;;;;;;9.97;5.13;;;;;;;;;;6214427;22;20197;-90
2022/11/19 10:42:49;;;;;;;11.23;5.83;;;;;;;;;;6278059;22;20162;-92
2022/11/19 10:45:54;;;;;;;16.50;6.00;;;;;;;;;;6278537;22;20166;-91
2022/11/19 10:49:02;;;;;;;11.57;5.60;;;;;;;;;;6277265;22;20525;-89
2022/11/19 10:52:10;;;;;;;9.93;5.10;;;;;;;;;;6275792;22;20189;-91
2022/11/19 10:55:18;;;;;;;11.33;5.93;;;;;;;;;;6272551;22;20161;-90
2022/11/19 10:58:25;;;;;;;10.03;5.73;;;;;;;;;;6277306;22;20161;-91
2022/11/19 11:01:32;;;;;;;12.43;5.93;;;;;;;;;;6278021;22;20185;-90
2022/11/19 11:04:59;;;;;;;11.27;5.50;;;;;;;;;;6279277;22;20185;-93
2022/11/19 11:08:11;;;;;;;9.90;5.33;;;;;;;;;;6277328;22;20166;-90
2022/11/19 11:11:22;;;;;;;9.93;5.27;;;;;;;;;;6277469;22;20153;-91
2022/11/19 11:18:01;;;;;;;11.53;5.40;;;;;;;;;;6277803;22;20185;-91
2022/11/19 11:21:10;;;;;;;10.43;5.47;;;;;;;;;;6278379;22;20162;-89
2022/11/19 11:24:16;;;;;;;14.67;6.60;;;;;;;;;;6279256;22;20186;-93
2022/11/19 11:27:23;;;;;;;13.17;6.40;;;;;;;;;;6280838;22;20170;-92
2022/11/19 11:30:29;;;;;;;10.97;5.77;;;;;;;;;;6279142;22;20215;-95
2022/11/19 11:33:37;;;;;;;13.50;6.33;;;;;;;;;;6278069;22;20616;-91
2022/11/19 11:36:45;;;;;;;12.20;6.00;;;;;;;;;;6277467;22;20161;-91
2022/11/19 11:39:52;;;;;;;13.30;6.03;;;;;;;;;;6251802;23;20190;-92
2022/11/19 11:43:10;;;;;;;11.37;5.47;;;;;;;;;;6238382;23;20211;-91
2022/11/19 11:46:18;;;;;;;10.93;5.43;;;;;;;;;;6236330;23;20222;-92
2022/11/19 11:49:28;;;;;;;11.27;5.40;;;;;;;;;;6238180;23;20194;-90
2022/11/19 11:52:38;;;;;;;10.53;5.20;;;;;;;;;;6236370;23;20618;-91
2022/11/19 11:55:44;;;;;;;9.27;4.97;;;;;;;;;;6234837;23;20171;-91
2022/11/19 11:58:49;;;;;;;8.00;4.57;;;;;;;;;;6236091;23;20175;-93
2022/11/19 12:01:55;;;;;;;9.40;4.83;;;;;;;;;;6236698;23;20171;-93
2022/11/19 12:05:02;;;;;;;14.53;6.80;;;;;;;;;;6234882;23;20217;-91
2022/11/19 12:08:14;;;;;;;8.10;4.27;;;;;;;;;;6233121;23;20204;-90
2022/11/19 12:11:23;;;;;;;9.63;5.20;;;;;;;;;;6234558;23;20262;-90
2022/11/19 12:14:31;;;;;;;11.00;5.20;;;;;;;;;;6235350;23;20187;-91
2022/11/19 12:17:40;;;;;;;10.37;4.90;;;;;;;;;;6235515;23;20171;-90
2022/11/19 12:20:48;;;;;;;8.17;3.80;;;;;;;;;;6236527;23;20215;-90
2022/11/19 12:24:03;;;;;;;10.00;5.27;;;;;;;;;;6234955;23;20224;-91
2022/11/19 12:27:13;;;;;;;11.43;5.80;;;;;;;;;;6235988;23;20320;-90
2022/11/19 12:30:21;;;;;;;8.97;4.63;;;;;;;;;;6236076;23;20203;-91
2022/11/19 12:33:33;;;;;;;7.97;4.33;;;;;;;;;;6235101;23;20150;-92
2022/11/19 12:36:45;;;;;;;8.37;4.50;;;;;;;;;;6236715;23;20187;-91
2022/11/19 12:39:55;;;;;;;8.33;4.70;;;;;;;;;;6247528;23;20230;-89
2022/11/19 12:43:04;;;;;;;12.17;5.90;;;;;;;;;;6246927;23;20244;-93
2022/11/19 12:46:18;;;;;;;9.20;5.00;;;;;;;;;;6246451;23;20166;-90
2022/11/19 12:49:34;;;;;;;8.00;4.70;;;;;;;;;;6247193;23;20190;-91
2022/11/19 12:52:56;;;;;;;8.90;4.70;;;;;;;;;;6248190;23;20171;-92
2022/11/19 12:56:07;;;;;;;8.90;3.83;;;;;;;;;;6249236;23;20171;-89
2022/11/19 12:59:22;;;;;;;8.60;4.40;;;;;;;;;;6247961;23;20166;-91
2022/11/19 13:02:32;;;;;;;9.83;4.67;;;;;;;;;;6248403;23;20174;-91
2022/11/19 13:05:43;;;;;;;9.60;5.17;;;;;;;;;;6248174;23;20613;-90
2022/11/19 13:08:50;;;;;;;9.70;4.43;;;;;;;;;;6249830;23;20169;-91
2022/11/19 13:12:01;;;;;;;7.70;4.10;;;;;;;;;;6248918;23;20660;-90
2022/11/19 13:15:10;;;;;;;9.90;5.10;;;;;;;;;;6247753;23;20170;-91
2022/11/19 13:18:18;;;;;;;10.30;5.03;;;;;;;;;;6248864;23;20170;-91
2022/11/19 13:21:28;;;;;;;8.53;4.33;;;;;;;;;;6247125;23;20190;-90
2022/11/19 13:24:37;;;;;;;8.03;4.70;;;;;;;;;;6247102;23;20675;-91
2022/11/19 13:27:45;;;;;;;9.33;4.90;;;;;;;;;;6248371;23;20521;-90
2022/11/19 13:30:53;;;;;;;10.17;4.90;;;;;;;;;;6248499;23;20194;-90
2022/11/19 13:34:01;;;;;;;10.73;5.50;;;;;;;;;;6248327;23;20169;-92
2022/11/19 13:37:13;;;;;;;9.13;4.90;;;;;;;;;;6246019;23;20162;-91
2022/11/19 13:40:26;;;;;;;12.20;6.80;;;;;;;;;;6245378;23;20262;-90
2022/11/19 13:47:13;;;;;;;30.50;13.77;;;;;;;;;;6142050;23;20166;-92
2022/11/19 13:50:21;;;;;;;19.87;9.73;;;;;;;;;;6142320;23;20184;-91
2022/11/19 13:53:30;;;;;;;32.67;14.47;;;;;;;;;;6245635;23;20193;-91
2022/11/19 13:56:38;;;;;;;34.73;15.40;;;;;;;;;;6244146;23;20170;-89
2022/11/19 13:59:46;;;;;;;28.40;12.67;;;;;;;;;;6246680;23;20162;-91
2022/11/19 14:03:08;;;;;;;23.40;11.57;;;;;;;;;;6245828;23;20242;-91
2022/11/19 14:06:19;;;;;;;24.60;11.13;;;;;;;;;;6244931;23;20194;-92
2022/11/19 14:09:29;;;;;;;23.33;11.43;;;;;;;;;;6243845;23;20197;-92
2022/11/19 14:12:46;;;;;;;20.00;9.33;;;;;;;;;;6245134;23;20166;-91
2022/11/19 14:26:53;;;;;;;16.23;8.30;;;;;;;;;;6243290;23;20166;-92
2022/11/19 14:30:00;;;;;;;24.03;10.30;;;;;;;;;;6244894;23;20645;-93
2022/11/19 14:33:35;;;;;;;17.37;8.97;;;;;;;;;;6243355;23;20165;-91
2022/11/19 14:36:45;;;;;;;18.93;9.37;;;;;;;;;;6244812;23;20243;-91
2022/11/19 14:39:55;;;;;;;23.37;10.27;;;;;;;;;;6243452;23;20186;-91
2022/11/19 14:54:57;;;;;;;19.83;9.57;;;;;;;;;;6246384;23;20200;-90
2022/11/19 14:58:03;;;;;;;22.07;10.33;;;;;;;;;;6244330;23;20174;-91
2022/11/19 15:01:11;;;;;;;19.80;9.40;;;;;;;;;;6245747;23;20158;-91
2022/11/19 15:04:18;;;;;;;25.73;11.13;;;;;;;;;;6243932;23;20550;-91
2022/11/19 15:07:37;;;;;;;25.63;12.13;;;;;;;;;;6247751;23;20175;-92
2022/11/19 15:11:03;;;;;;;25.93;12.53;;;;;;;;;;6244269;23;20189;-92
2022/11/19 15:14:27;;;;;;;24.00;11.17;;;;;;;;;;6244327;23;20171;-90
2022/11/19 15:17:35;;;;;;;22.47;10.43;;;;;;;;;;6244697;23;20158;-91
2022/11/19 15:20:47;;;;;;;25.70;11.27;;;;;;;;;;6245675;23;20167;-90
2022/11/19 15:23:58;;;;;;;26.73;11.93;;;;;;;;;;6246673;23;20165;-91
2022/11/19 15:27:10;;;;;;;27.57;11.63;;;;;;;;;;6246025;23;20171;-93
2022/11/19 15:30:23;;;;;;;26.40;11.70;;;;;;;;;;6243214;23;20222;-89
2022/11/19 15:33:43;;;;;;;23.87;10.80;;;;;;;;;;6244611;22;20185;-92
2022/11/19 15:36:50;;;;;;;25.43;10.77;;;;;;;;;;6243554;23;20166;-90
2022/11/19 15:39:58;;;;;;;26.30;11.77;;;;;;;;;;6244879;23;20258;-92
2022/11/19 15:43:13;;;;;;;25.23;11.50;;;;;;;;;;6245231;23;20170;-91
2022/11/19 15:46:21;;;;;;;27.43;11.70;;;;;;;;;;6245376;22;20155;-91
2022/11/19 15:52:58;;;;;;;29.90;13.03;;;;;;;;;;6245833;23;20875;-91
2022/11/19 15:56:06;;;;;;;31.27;12.80;;;;;;;;;;6243612;23;20170;-90
2022/11/19 15:59:14;;;;;;;27.53;12.63;;;;;;;;;;6244917;23;20163;-91
2022/11/19 16:02:21;;;;;;;30.10;13.27;;;;;;;;;;6244517;23;20225;-89
2022/11/19 16:05:28;;;;;;;26.07;12.07;;;;;;;;;;6242004;23;20206;-92
2022/11/19 16:08:33;;;;;;;33.37;14.97;;;;;;;;;;6243783;23;20170;-93
2022/11/19 16:18:26;;;;;;;108.80;39.77;;;;;;;;;;6247051;23;20170;-91
2022/11/19 16:21:35;;;;;;;180.47;65.07;;;;;;;;;;6244678;23;20170;-93
2022/11/19 16:28:06;;;;;;;99.13;44.73;;;;;;;;;;6244651;23;20194;-92
2022/11/19 16:31:13;;;;;;;32.03;14.67;;;;;;;;;;6246045;23;20190;-90
2022/11/19 16:34:21;;;;;;;33.97;16.03;;;;;;;;;;6247261;23;20217;-93
2022/11/19 16:37:29;;;;;;;48.33;20.80;;;;;;;;;;6245357;23;20186;-90
2022/11/19 16:43:54;;;;;;;66.67;21.97;;;;;;;;;;6243282;23;20186;-93
2022/11/19 16:47:05;;;;;;;44.03;18.47;;;;;;;;;;6246620;23;20155;-93
2022/11/19 16:50:25;;;;;;;45.60;18.73;;;;;;;;;;6242203;23;20255;-93
2022/11/19 16:53:45;;;;;;;49.90;17.97;;;;;;;;;;6242645;23;20194;-89
2022/11/19 16:56:50;;;;;;;50.43;19.67;;;;;;;;;;6240950;23;20181;-92
2022/11/19 16:59:57;;;;;;;49.93;19.73;;;;;;;;;;6240528;23;20241;-92
2022/11/19 17:03:17;;;;;;;76.37;29.43;;;;;;;;;;6241794;23;20247;-93
2022/11/19 17:06:24;;;;;;;46.07;19.57;;;;;;;;;;6241505;23;20167;-93
2022/11/19 17:09:35;;;;;;;40.63;17.07;;;;;;;;;;6240948;22;20159;-93
2022/11/19 17:12:50;;;;;;;45.63;18.07;;;;;;;;;;6244435;23;20182;-89
2022/11/19 17:15:56;;;;;;;51.50;21.33;;;;;;;;;;6244879;23;20197;-92
2022/11/19 17:19:16;;;;;;;43.80;17.13;;;;;;;;;;6244358;23;20171;-92
2022/11/19 17:22:22;;;;;;;38.47;17.13;;;;;;;;;;6245115;23;20235;-92
2022/11/19 17:25:28;;;;;;;43.90;18.70;;;;;;;;;;6243531;23;20189;-90
2022/11/19 17:28:36;;;;;;;55.13;21.40;;;;;;;;;;6241349;23;20551;-90
2022/11/19 17:31:47;;;;;;;34.83;15.37;;;;;;;;;;6251447;23;20198;-91
2022/11/19 17:34:54;;;;;;;42.97;16.23;;;;;;;;;;6262421;23;20165;-90
2022/11/19 17:38:00;;;;;;;51.00;19.43;;;;;;;;;;6244051;23;20174;-91
2022/11/19 17:41:06;;;;;;;38.87;16.43;;;;;;;;;;6242187;23;20185;-92
2022/11/19 17:44:31;;;;;;;45.13;18.93;;;;;;;;;;6245122;23;20162;-90
2022/11/19 17:47:35;;;;;;;45.97;17.70;;;;;;;;;;6245197;23;20167;-91
2022/11/19 17:50:46;;;;;;;40.80;17.57;;;;;;;;;;6245082;23;20256;-91
2022/11/19 17:53:52;;;;;;;45.40;18.63;;;;;;;;;;6244977;23;20182;-89
2022/11/19 17:56:57;;;;;;;48.87;19.63;;;;;;;;;;6244996;22;20178;-89
2022/11/19 18:00:08;;;;;;;48.07;19.07;;;;;;;;;;6245825;23;20171;-91
2022/11/19 18:03:16;;;;;;;48.73;18.40;;;;;;;;;;6244831;23;20218;-91
2022/11/19 18:06:23;;;;;;;51.87;19.27;;;;;;;;;;6243473;23;20193;-91
2022/11/19 18:09:28;;;;;;;49.57;19.63;;;;;;;;;;6244763;23;20174;-92
2022/11/19 18:12:34;;;;;;;54.10;19.27;;;;;;;;;;6244762;23;20178;-90
2022/11/19 18:15:40;;;;;;;52.33;20.07;;;;;;;;;;6245796;23;20170;-92
2022/11/19 18:18:45;;;;;;;45.90;18.70;;;;;;;;;;6245673;23;20174;-90
2022/11/19 18:21:52;;;;;;;46.43;17.97;;;;;;;;;;6245032;23;20515;-91
2022/11/19 18:24:58;;;;;;;44.60;17.97;;;;;;;;;;6245101;22;20248;-88
2022/11/19 18:28:04;;;;;;;45.27;17.77;;;;;;;;;;6245461;23;20504;-90
2022/11/19 18:31:13;;;;;;;48.53;18.63;;;;;;;;;;6245431;23;20265;-90
2022/11/19 18:34:20;;;;;;;50.57;18.53;;;;;;;;;;6246742;23;20178;-90
2022/11/19 18:37:36;;;;;;;48.03;19.07;;;;;;;;;;6244879;23;20174;-90
2022/11/19 18:40:50;;;;;;;49.33;20.23;;;;;;;;;;6263925;23;20190;-90
2022/11/19 18:47:22;;;;;;;46.13;18.63;;;;;;;;;;6247957;23;20167;-89
2022/11/19 18:50:27;;;;;;;46.60;18.60;;;;;;;;;;6244174;23;20193;-89
2022/11/19 18:53:35;;;;;;;55.70;19.53;;;;;;;;;;6244711;22;20158;-90
2022/11/19 18:56:49;;;;;;;53.13;19.47;;;;;;;;;;6247640;22;20170;-91
2022/11/19 18:59:55;;;;;;;55.27;19.27;;;;;;;;;;6247493;23;20167;-89
2022/11/19 19:03:04;;;;;;;46.37;19.37;;;;;;;;;;6263618;22;20249;-90
2022/11/19 19:06:10;;;;;;;45.50;19.37;;;;;;;;;;6245918;22;20171;-91
2022/11/19 19:09:19;;;;;;;49.50;19.27;;;;;;;;;;6246486;23;20226;-89
2022/11/19 19:12:31;;;;;;;51.80;19.47;;;;;;;;;;6245212;23;20237;-91
2022/11/19 19:15:36;;;;;;;54.97;20.83;;;;;;;;;;6245695;23;20219;-90
2022/11/19 19:18:48;;;;;;;59.03;20.23;;;;;;;;;;6244606;23;20178;-91
2022/11/19 19:21:53;;;;;;;52.70;20.50;;;;;;;;;;6245602;23;20170;-90
2022/11/19 19:25:01;;;;;;;67.57;24.83;;;;;;;;;;6247478;23;20165;-89
2022/11/19 19:28:06;;;;;;;64.67;24.20;;;;;;;;;;6246702;23;20219;-91
2022/11/19 19:31:12;;;;;;;58.27;21.40;;;;;;;;;;6246447;23;20189;-90
2022/11/19 19:34:18;;;;;;;69.67;25.33;;;;;;;;;;6244355;23;20174;-89
2022/11/19 19:40:44;;;;;;;105.83;40.57;;;;;;;;;;6247650;23;20194;-92
2022/11/19 19:43:50;;;;;;;54.40;20.53;;;;;;;;;;6246253;23;20182;-90
2022/11/19 19:46:59;;;;;;;56.33;20.83;;;;;;;;;;6247212;23;20202;-92
2022/11/19 19:50:06;;;;;;;54.23;20.07;;;;;;;;;;6246790;22;20178;-91
2022/11/19 19:53:12;;;;;;;52.47;19.47;;;;;;;;;;6248907;22;20178;-91
2022/11/19 19:56:26;;;;;;;50.03;19.73;;;;;;;;;;6246486;22;20174;-92
2022/11/19 19:59:33;;;;;;;63.80;23.80;;;;;;;;;;6249375;23;20494;-92
2022/11/19 20:02:38;;;;;;;52.67;19.43;;;;;;;;;;6245813;22;20170;-92
2022/11/19 20:05:50;;;;;;;61.57;24.33;;;;;;;;;;6245399;22;20223;-89
2022/11/19 20:08:55;;;;;;;112.77;37.53;;;;;;;;;;6247438;23;20167;-92
2022/11/19 20:12:09;;;;;;;68.07;24.37;;;;;;;;;;6247975;23;20266;-91
2022/11/19 20:15:24;;;;;;;84.63;29.50;;;;;;;;;;6255715;22;20182;-92
2022/11/19 20:18:32;;;;;;;55.93;20.27;;;;;;;;;;6246313;23;20239;-92
2022/11/19 20:21:37;;;;;;;56.73;19.50;;;;;;;;;;6246718;23;20151;-90
2022/11/19 20:24:42;;;;;;;52.93;19.43;;;;;;;;;;6249977;22;20166;-92
2022/11/19 20:27:52;;;;;;;55.77;20.93;;;;;;;;;;6248153;23;20175;-90
2022/11/19 20:31:09;;;;;;;50.40;18.53;;;;;;;;;;6248576;23;20189;-92
2022/11/19 20:34:15;;;;;;;51.10;19.03;;;;;;;;;;6246871;23;20166;-91
2022/11/19 20:37:20;;;;;;;51.10;19.40;;;;;;;;;;6247963;23;20169;-92
2022/11/19 20:40:26;;;;;;;53.70;18.57;;;;;;;;;;6247461;23;20198;-92
2022/11/19 20:47:00;;;;;;;50.57;18.17;;;;;;;;;;6248233;23;20158;-91
2022/11/19 20:50:07;;;;;;;54.00;21.47;;;;;;;;;;6248501;23;20252;-90
2022/11/19 20:53:12;;;;;;;48.33;19.10;;;;;;;;;;6248319;22;20178;-92
2022/11/19 20:56:17;;;;;;;55.37;20.17;;;;;;;;;;6246104;23;20190;-93
2022/11/19 20:59:25;;;;;;;48.17;18.93;;;;;;;;;;6248121;23;20167;-93
2022/11/19 21:02:30;;;;;;;52.53;19.90;;;;;;;;;;6246255;23;20182;-90
2022/11/19 21:05:36;;;;;;;55.57;19.50;;;;;;;;;;6245137;23;20211;-92
2022/11/19 21:08:41;;;;;;;53.50;18.57;;;;;;;;;;6248298;23;20166;-92
2022/11/19 23:50:20;;;;;;;46.43;18.23;;;;;;;;;;6204032;22;20430;-89
2022/11/19 23:53:26;;;;;;;45.13;18.17;;;;;;;;;;6213592;22;20167;-93
2022/11/19 23:56:34;;;;;;;45.97;18.20;;;;;;;;;;6215520;23;20167;-93
2022/11/19 23:59:39;;;;;;;44.00;17.57;;;;;;;;;;6215034;23;20210;-91
